Time;durP1;ratioP1;P1;durP2;ratioP2;P2;SDS_P1;SDS_P2;PMS_P1;PMS_P2;Temp;Humidity;BMP_temperature;BMP_pressure;BME280_temperature;BME280_humidity;BME280_pressure;Samples;Min_cycle;Max_cycle;Signal;HPM_P1;HPM_P2
2022/04/28 00:00:53;;;;;;;7.10;6.30;;;;;;;;;;5012477;28;20128;-79
2022/04/28 00:03:20;;;;;;;5.68;5.18;;;;;;;;;;5011757;28;20049;-78
2022/04/28 00:05:48;;;;;;;7.30;6.70;;;;;;;;;;5026863;28;20040;-79
2022/04/28 00:08:15;;;;;;;6.22;5.72;;;;;;;;;;5035891;28;20131;-79
2022/04/28 00:10:43;;;;;;;7.57;6.53;;;;;;;;;;4998339;28;20582;-78
2022/04/28 00:13:12;;;;;;;7.68;6.90;;;;;;;;;;5030552;28;20092;-77
2022/04/28 00:15:40;;;;;;;9.00;7.20;;;;;;;;;;5017022;28;20045;-79
2022/04/28 00:18:08;;;;;;;6.80;6.18;;;;;;;;;;5045242;28;20486;-78
2022/04/28 00:20:36;;;;;;;8.63;6.20;;;;;;;;;;5009682;28;20052;-77
2022/04/28 00:23:03;;;;;;;7.70;6.90;;;;;;;;;;5048146;28;20481;-78
2022/04/28 00:25:31;;;;;;;14.05;7.35;;;;;;;;;;5024748;28;20065;-78
2022/04/28 00:27:58;;;;;;;9.50;7.88;;;;;;;;;;5047185;28;20140;-77
2022/04/28 00:30:26;;;;;;;13.43;7.65;;;;;;;;;;5028613;28;20072;-77
2022/04/28 00:32:53;;;;;;;12.70;6.85;;;;;;;;;;5009414;28;20100;-79
2022/04/28 00:35:21;;;;;;;14.52;8.10;;;;;;;;;;5042064;28;20136;-77
2022/04/28 00:37:48;;;;;;;7.90;6.75;;;;;;;;;;5042598;28;20048;-78
2022/04/28 00:40:19;;;;;;;15.43;8.48;;;;;;;;;;5011733;28;20037;-77
2022/04/28 00:42:46;;;;;;;18.75;9.40;;;;;;;;;;5011826;28;20202;-78
2022/04/28 00:45:15;;;;;;;38.50;9.73;;;;;;;;;;5020435;28;20148;-78
2022/04/28 00:50:40;;;;;;;7.57;6.88;;;;;;;;;;5017145;28;20513;-78
2022/04/28 00:53:12;;;;;;;12.23;7.90;;;;;;;;;;5023465;28;20033;-78
2022/04/28 00:55:42;;;;;;;9.25;7.40;;;;;;;;;;5027831;28;20039;-78
2022/04/28 00:58:10;;;;;;;10.18;6.85;;;;;;;;;;5024055;28;20086;-78
2022/04/28 01:00:40;;;;;;;12.65;7.10;;;;;;;;;;5021633;28;20052;-79
2022/04/28 01:03:10;;;;;;;8.23;7.43;;;;;;;;;;5023228;28;20073;-78
2022/04/28 01:05:38;;;;;;;20.30;7.13;;;;;;;;;;5043360;28;20044;-78
2022/04/28 01:08:06;;;;;;;7.55;6.78;;;;;;;;;;5024511;28;20106;-78
2022/04/28 01:10:36;;;;;;;17.50;7.07;;;;;;;;;;5009980;28;20572;-78
2022/04/28 01:13:05;;;;;;;20.63;8.48;;;;;;;;;;5025222;28;20033;-78
2022/04/28 01:15:42;;;;;;;30.77;7.60;;;;;;;;;;5017547;28;20045;-79
2022/04/28 01:18:10;;;;;;;20.40;8.10;;;;;;;;;;5026592;28;20531;-79
2022/04/28 01:20:38;;;;;;;15.80;7.78;;;;;;;;;;5025708;28;20501;-78
2022/04/28 01:23:05;;;;;;;18.08;7.75;;;;;;;;;;5018017;28;20249;-78
2022/04/28 01:25:33;;;;;;;9.55;7.32;;;;;;;;;;5022507;28;20041;-79
2022/04/28 01:28:01;;;;;;;28.77;7.43;;;;;;;;;;5021332;28;20052;-80
2022/04/28 01:30:28;;;;;;;34.38;9.00;;;;;;;;;;5042114;28;20394;-77
2022/04/28 01:32:58;;;;;;;23.90;7.70;;;;;;;;;;5003905;28;20041;-78
2022/04/28 01:35:26;;;;;;;20.55;6.45;;;;;;;;;;4994796;28;20049;-78
2022/04/28 01:37:53;;;;;;;36.03;9.18;;;;;;;;;;5026710;28;20420;-79
2022/04/28 01:40:21;;;;;;;21.60;7.35;;;;;;;;;;5034074;28;20044;-80
2022/04/28 01:42:49;;;;;;;40.90;8.13;;;;;;;;;;5026774;28;20073;-78
2022/04/28 01:45:19;;;;;;;16.15;9.00;;;;;;;;;;5009750;28;20470;-78
2022/04/28 01:48:05;;;;;;;8.50;5.93;;;;;;;;;;5038657;28;20218;-78
2022/04/28 01:56:28;;;;;;;34.38;7.32;;;;;;;;;;5015949;28;20041;-79
2022/04/28 01:59:07;;;;;;;30.30;7.03;;;;;;;;;;5015517;28;20311;-79
2022/04/28 02:01:57;;;;;;;13.40;5.63;;;;;;;;;;5006088;28;20485;-78
2022/04/28 02:04:26;;;;;;;17.08;7.35;;;;;;;;;;5023537;28;20045;-78
2022/04/28 02:06:54;;;;;;;7.13;5.50;;;;;;;;;;5015679;28;20569;-78
2022/04/28 02:09:22;;;;;;;12.13;6.38;;;;;;;;;;4994161;28;20049;-78
2022/04/28 02:11:50;;;;;;;15.77;7.43;;;;;;;;;;5006809;28;20040;-78
2022/04/28 02:14:37;;;;;;;19.17;6.38;;;;;;;;;;5021471;28;20053;-77
2022/04/28 02:17:28;;;;;;;40.30;7.00;;;;;;;;;;5028893;28;20095;-77
2022/04/28 02:19:55;;;;;;;50.00;8.50;;;;;;;;;;5011022;28;20094;-79
2022/04/28 02:22:23;;;;;;;51.58;9.70;;;;;;;;;;5041704;28;20522;-77
2022/04/28 02:24:51;;;;;;;36.30;8.45;;;;;;;;;;5037832;28;20049;-77
2022/04/28 02:27:19;;;;;;;24.75;8.15;;;;;;;;;;5044253;28;20481;-79
2022/04/28 02:29:46;;;;;;;55.83;8.00;;;;;;;;;;5047629;28;20098;-78
2022/04/28 02:32:14;;;;;;;40.72;9.85;;;;;;;;;;5044925;28;20041;-78
2022/04/28 02:34:42;;;;;;;25.67;6.43;;;;;;;;;;5049458;28;20041;-77
2022/04/28 02:37:10;;;;;;;49.58;8.27;;;;;;;;;;5031001;28;20448;-77
2022/04/28 02:39:39;;;;;;;35.20;7.50;;;;;;;;;;5046084;28;20362;-77
2022/04/28 02:42:11;;;;;;;40.47;7.72;;;;;;;;;;5056052;28;20355;-77
2022/04/28 02:44:39;;;;;;;18.25;7.40;;;;;;;;;;5029184;28;20190;-78
2022/04/28 02:47:10;;;;;;;29.40;7.72;;;;;;;;;;5046908;28;20446;-77
2022/04/28 02:49:38;;;;;;;45.70;7.10;;;;;;;;;;5046389;28;20385;-77
2022/04/28 02:52:08;;;;;;;6.32;5.72;;;;;;;;;;5044811;28;20043;-77
2022/04/28 02:54:37;;;;;;;9.73;8.13;;;;;;;;;;5042141;28;20502;-78
2022/04/28 02:57:05;;;;;;;23.98;8.55;;;;;;;;;;5034216;28;20182;-78
2022/04/28 02:59:33;;;;;;;29.83;8.45;;;;;;;;;;5005400;28;20049;-77
2022/04/28 03:02:01;;;;;;;21.77;8.40;;;;;;;;;;5029161;28;20063;-77
2022/04/28 03:04:28;;;;;;;23.40;9.10;;;;;;;;;;5043643;28;20033;-77
2022/04/28 03:12:33;;;;;;;22.02;7.88;;;;;;;;;;5040222;28;20110;-77
2022/04/28 03:15:12;;;;;;;9.40;6.85;;;;;;;;;;5003131;28;20060;-78
2022/04/28 03:17:40;;;;;;;6.75;6.15;;;;;;;;;;5024926;28;20314;-78
2022/04/28 03:20:07;;;;;;;8.50;6.68;;;;;;;;;;5038443;28;20041;-78
2022/04/28 03:22:36;;;;;;;5.93;5.15;;;;;;;;;;5034751;28;20464;-79
2022/04/28 03:25:04;;;;;;;7.00;6.40;;;;;;;;;;5025541;28;20265;-79
2022/04/28 03:27:32;;;;;;;7.50;6.53;;;;;;;;;;5019496;28;20033;-78
2022/04/28 03:30:00;;;;;;;7.28;6.57;;;;;;;;;;5025871;28;20041;-78
2022/04/28 03:32:32;;;;;;;8.93;7.25;;;;;;;;;;5027901;28;20120;-78
2022/04/28 03:35:06;;;;;;;8.55;7.63;;;;;;;;;;5022123;28;20033;-79
2022/04/28 03:37:34;;;;;;;10.50;8.00;;;;;;;;;;5044457;28;20539;-79
2022/04/28 03:40:01;;;;;;;7.72;7.03;;;;;;;;;;5028707;28;20041;-78
2022/04/28 03:42:30;;;;;;;6.85;6.25;;;;;;;;;;5019941;28;20139;-79
2022/04/28 03:44:59;;;;;;;6.63;6.03;;;;;;;;;;5011801;28;20039;-77
2022/04/28 03:47:32;;;;;;;10.80;7.18;;;;;;;;;;5019206;28;20045;-79
2022/04/28 03:50:00;;;;;;;14.70;7.13;;;;;;;;;;5018270;28;20059;-77
2022/04/28 03:52:27;;;;;;;8.82;6.47;;;;;;;;;;5023404;28;20528;-78
2022/04/28 03:54:54;;;;;;;6.93;6.32;;;;;;;;;;5013914;28;20045;-77
2022/04/28 03:57:24;;;;;;;13.73;6.97;;;;;;;;;;5026088;28;20049;-78
2022/04/28 03:59:51;;;;;;;8.48;6.60;;;;;;;;;;5025976;28;20404;-79
2022/04/28 04:02:28;;;;;;;40.17;7.72;;;;;;;;;;5042816;28;20037;-78
2022/04/28 04:04:55;;;;;;;13.05;7.20;;;;;;;;;;5038342;28;20050;-78
2022/04/28 04:07:23;;;;;;;7.47;6.72;;;;;;;;;;5043608;28;20480;-78
2022/04/28 04:09:53;;;;;;;14.27;8.30;;;;;;;;;;5027155;28;20040;-78
2022/04/28 04:12:32;;;;;;;15.98;6.00;;;;;;;;;;5030352;28;20041;-78
2022/04/28 04:15:23;;;;;;;11.68;6.95;;;;;;;;;;5039177;28;20087;-78
2022/04/28 04:18:02;;;;;;;13.07;6.25;;;;;;;;;;5026229;28;20029;-78
2022/04/28 04:27:28;;;;;;;7.43;5.43;;;;;;;;;;521730;26;20377;-78
2022/04/28 04:34:04;;;;;;;14.27;7.47;;;;;;;;;;5046063;28;20617;-78
2022/04/28 04:36:32;;;;;;;14.07;6.10;;;;;;;;;;5035917;28;20032;-78
2022/04/28 04:39:00;;;;;;;9.05;7.32;;;;;;;;;;5061298;28;20396;-78
2022/04/28 04:41:36;;;;;;;20.48;7.07;;;;;;;;;;5057298;28;20075;-78
2022/04/28 04:44:18;;;;;;;7.95;7.15;;;;;;;;;;5020122;28;20052;-78
2022/04/28 04:46:47;;;;;;;7.40;6.80;;;;;;;;;;5029093;28;20052;-78
2022/04/28 04:49:38;;;;;;;16.48;6.40;;;;;;;;;;5051181;28;20123;-78
2022/04/28 04:52:13;;;;;;;7.18;5.97;;;;;;;;;;5048758;28;20704;-78
2022/04/28 04:55:05;;;;;;;7.47;6.10;;;;;;;;;;5044591;28;20040;-79
2022/04/28 05:01:12;;;;;;;8.20;7.07;;;;;;;;;;5051802;28;20050;-79
2022/04/28 05:04:24;;;;;;;7.47;6.75;;;;;;;;;;5073968;28;20063;-78
2022/04/28 05:07:12;;;;;;;9.45;8.55;;;;;;;;;;5059484;28;20129;-78
2022/04/28 05:09:40;;;;;;;11.45;9.95;;;;;;;;;;5052465;28;20072;-79
2022/04/28 05:12:27;;;;;;;13.73;8.45;;;;;;;;;;5051077;28;20677;-81
2022/04/28 05:15:24;;;;;;;10.38;6.53;;;;;;;;;;5066689;28;20119;-80
2022/04/28 05:18:07;;;;;;;8.45;7.57;;;;;;;;;;5053709;28;20041;-79
2022/04/28 05:20:53;;;;;;;7.47;6.78;;;;;;;;;;5047228;28;20037;-79
2022/04/28 05:23:39;;;;;;;9.63;8.68;;;;;;;;;;5028932;28;20190;-79
2022/04/28 05:26:25;;;;;;;6.75;6.20;;;;;;;;;;5061018;28;20044;-78
2022/04/28 05:29:11;;;;;;;7.47;5.97;;;;;;;;;;5028260;28;20056;-78
2022/04/28 05:31:47;;;;;;;8.00;7.20;;;;;;;;;;5046272;28;20113;-78
2022/04/28 05:34:54;;;;;;;7.40;6.70;;;;;;;;;;5037826;28;20049;-78
2022/04/28 05:37:22;;;;;;;7.20;6.22;;;;;;;;;;5089900;23;20044;-79
2022/04/28 05:41:00;;;;;;;7.05;5.93;;;;;;;;;;5072839;28;20297;-79
2022/04/28 05:46:41;;;;;;;9.70;8.80;;;;;;;;;;5057830;28;20090;-79
2022/04/28 05:49:09;;;;;;;10.18;8.70;;;;;;;;;;5066495;28;20668;-79
2022/04/28 05:51:37;;;;;;;9.15;6.65;;;;;;;;;;5045898;28;20115;-78
2022/04/28 05:54:06;;;;;;;8.10;6.25;;;;;;;;;;5048913;28;20036;-77
2022/04/28 05:56:38;;;;;;;;;;;;;;;;;;5041190;28;20048;-78
2022/04/28 05:59:11;;;;;;;6.43;5.93;;;;;;;;;;5048438;28;19971;-78
2022/04/28 06:02:02;;;;;;;8.68;6.63;;;;;;;;;;5038880;28;20041;-79
2022/04/28 06:04:40;;;;;;;7.20;6.50;;;;;;;;;;5029150;28;20048;-78
2022/04/28 06:07:22;;;;;;;8.50;6.78;;;;;;;;;;5041345;28;20067;-78
2022/04/28 06:10:47;;;;;;;6.95;6.25;;;;;;;;;;4992969;28;20790;-78
2022/04/28 06:17:53;;;;;;;7.25;6.53;;;;;;;;;;5096989;22;20413;-80
2022/04/28 06:20:30;;;;;;;7.03;6.32;;;;;;;;;;5049284;28;20049;-81
2022/04/28 06:23:07;;;;;;;7.35;6.65;;;;;;;;;;5037515;28;20071;-81
2022/04/28 06:25:43;;;;;;;7.72;7.00;;;;;;;;;;5002301;28;20045;-81
2022/04/28 06:28:13;;;;;;;7.35;6.63;;;;;;;;;;5022626;28;20055;-82
2022/04/28 06:30:45;;;;;;;8.85;8.05;;;;;;;;;;5045955;28;20052;-79
2022/04/28 06:33:44;;;;;;;8.10;7.38;;;;;;;;;;5012631;28;20033;-81
2022/04/28 06:36:37;;;;;;;7.95;7.25;;;;;;;;;;5037694;28;20044;-81
2022/04/28 06:39:16;;;;;;;8.05;7.35;;;;;;;;;;5028969;28;20037;-80
2022/04/28 06:41:54;;;;;;;8.55;7.75;;;;;;;;;;5013024;28;20059;-80
2022/04/28 06:44:39;;;;;;;8.05;7.15;;;;;;;;;;5016191;28;20076;-81
2022/04/28 06:47:41;;;;;;;7.93;7.13;;;;;;;;;;5023685;28;20056;-80
2022/04/28 06:50:36;;;;;;;8.70;6.88;;;;;;;;;;5042957;28;20044;-79
2022/04/28 06:53:29;;;;;;;8.05;7.35;;;;;;;;;;5039753;28;20420;-81
2022/04/28 06:56:02;;;;;;;7.25;6.65;;;;;;;;;;5040201;28;20398;-81
2022/04/28 06:58:38;;;;;;;9.90;7.00;;;;;;;;;;5016015;28;20102;-79
2022/04/28 07:01:11;;;;;;;7.85;7.05;;;;;;;;;;5031967;28;20033;-80
2022/04/28 07:03:43;;;;;;;7.75;6.95;;;;;;;;;;5027516;28;20075;-80
2022/04/28 07:06:11;;;;;;;9.98;6.97;;;;;;;;;;5030170;28;20444;-81
2022/04/28 07:08:39;;;;;;;7.65;6.68;;;;;;;;;;5025209;28;20159;-81
2022/04/28 07:11:09;;;;;;;8.05;6.57;;;;;;;;;;5031738;28;20529;-81
2022/04/28 07:13:38;;;;;;;7.30;6.70;;;;;;;;;;5010740;28;20048;-82
2022/04/28 07:16:29;;;;;;;7.15;6.55;;;;;;;;;;5012600;28;20048;-80
2022/04/28 07:19:20;;;;;;;6.97;6.38;;;;;;;;;;5054514;28;20217;-82
2022/04/28 07:21:50;;;;;;;7.25;6.65;;;;;;;;;;5052048;28;20079;-81
2022/04/28 07:24:18;;;;;;;8.40;7.70;;;;;;;;;;5054056;28;20395;-82
2022/04/28 07:26:46;;;;;;;10.05;8.32;;;;;;;;;;5048653;28;20072;-79
2022/04/28 07:29:15;;;;;;;10.05;9.15;;;;;;;;;;5036570;28;20107;-80
2022/04/28 07:32:02;;;;;;;10.43;7.40;;;;;;;;;;5046192;28;20079;-78
2022/04/28 07:34:48;;;;;;;13.52;10.32;;;;;;;;;;5059928;28;20055;-80
2022/04/28 07:37:36;;;;;;;7.50;6.80;;;;;;;;;;5008927;28;20136;-80
2022/04/28 07:40:25;;;;;;;8.13;7.32;;;;;;;;;;5040465;28;20055;-81
2022/04/28 07:42:59;;;;;;;8.98;7.75;;;;;;;;;;5006347;22;20053;-79
2022/04/28 07:45:26;;;;;;;8.30;7.50;;;;;;;;;;5032506;28;20044;-78
2022/04/28 07:47:55;;;;;;;6.50;5.90;;;;;;;;;;5028875;28;20045;-79
2022/04/28 07:50:24;;;;;;;7.60;6.90;;;;;;;;;;5024226;28;20049;-78
2022/04/28 07:53:02;;;;;;;7.30;6.60;;;;;;;;;;5012213;28;20384;-79
2022/04/28 07:55:30;;;;;;;6.78;6.18;;;;;;;;;;5002347;28;20049;-78
2022/04/28 07:57:59;;;;;;;7.57;6.30;;;;;;;;;;4997010;28;20033;-79
2022/04/28 08:00:40;;;;;;;6.40;5.90;;;;;;;;;;5001742;28;20535;-79
2022/04/28 08:03:08;;;;;;;8.95;5.90;;;;;;;;;;5020947;28;20429;-79
2022/04/28 08:05:45;;;;;;;5.80;5.30;;;;;;;;;;5008979;28;20085;-78
2022/04/28 08:08:13;;;;;;;8.93;6.00;;;;;;;;;;4998975;28;20045;-77
2022/04/28 08:10:41;;;;;;;5.80;5.30;;;;;;;;;;5028037;28;20053;-77
2022/04/28 08:13:08;;;;;;;6.28;5.10;;;;;;;;;;5012047;28;20141;-78
2022/04/28 08:15:54;;;;;;;5.57;5.15;;;;;;;;;;5028558;28;20094;-78
2022/04/28 08:18:25;;;;;;;5.47;5.07;;;;;;;;;;5028515;28;20057;-77
2022/04/28 08:20:53;;;;;;;6.05;5.45;;;;;;;;;;5025197;28;20060;-77
2022/04/28 08:23:21;;;;;;;5.55;4.93;;;;;;;;;;5011706;28;20050;-79
2022/04/28 08:25:52;;;;;;;7.65;5.00;;;;;;;;;;5014670;28;20052;-78
2022/04/28 08:28:20;;;;;;;4.70;4.38;;;;;;;;;;5028283;28;20560;-77
2022/04/28 08:30:47;;;;;;;5.13;4.60;;;;;;;;;;5010958;28;20483;-78
2022/04/28 08:33:16;;;;;;;6.93;5.20;;;;;;;;;;5011515;28;20413;-79
2022/04/28 08:35:44;;;;;;;5.35;4.57;;;;;;;;;;5029617;28;20037;-78
2022/04/28 08:38:12;;;;;;;7.22;4.57;;;;;;;;;;5030414;28;20041;-80
2022/04/28 08:40:50;;;;;;;5.15;4.68;;;;;;;;;;4998038;28;20049;-78
2022/04/28 08:43:41;;;;;;;7.05;4.70;;;;;;;;;;5006407;28;20065;-78
2022/04/28 08:48:56;;;;;;;4.70;4.30;;;;;;;;;;5012809;28;20075;-76
2022/04/28 08:51:26;;;;;;;7.00;4.88;;;;;;;;;;5028752;28;20481;-78
2022/04/28 08:53:58;;;;;;;4.93;4.50;;;;;;;;;;5011208;28;20033;-78
2022/04/28 08:56:26;;;;;;;4.65;4.35;;;;;;;;;;5027427;28;20049;-77
2022/04/28 08:58:59;;;;;;;5.85;4.28;;;;;;;;;;5005741;28;20476;-78
2022/04/28 09:01:27;;;;;;;4.05;3.75;;;;;;;;;;5022352;28;20045;-78
2022/04/28 09:04:33;;;;;;;5.90;4.10;;;;;;;;;;4981055;28;20062;-78
2022/04/28 09:07:30;;;;;;;4.22;3.83;;;;;;;;;;4968587;28;20042;-78
2022/04/28 09:10:44;;;;;;;3.92;3.63;;;;;;;;;;4986146;28;20084;-78
2022/04/28 09:16:25;;;;;;;5.00;4.47;;;;;;;;;;5012033;28;20578;-78
2022/04/28 09:18:54;;;;;;;4.93;4.60;;;;;;;;;;5024675;28;20101;-77
2022/04/28 09:21:23;;;;;;;7.03;4.63;;;;;;;;;;5037240;28;20041;-77
2022/04/28 09:23:51;;;;;;;4.15;3.85;;;;;;;;;;5018932;28;20045;-77
2022/04/28 09:26:23;;;;;;;5.57;4.20;;;;;;;;;;5026575;28;20072;-78
2022/04/28 09:28:53;;;;;;;6.43;4.05;;;;;;;;;;5026500;28;20045;-78
2022/04/28 09:31:23;;;;;;;10.45;3.70;;;;;;;;;;5009916;28;20437;-77
2022/04/28 09:34:27;;;;;;;6.40;4.05;;;;;;;;;;5028727;28;20179;-77
2022/04/28 09:37:16;;;;;;;4.95;4.20;;;;;;;;;;4990034;28;20058;-78
2022/04/28 09:42:39;;;;;;;10.45;4.03;;;;;;;;;;5025073;28;20045;-78
2022/04/28 09:45:13;;;;;;;4.82;4.20;;;;;;;;;;5025655;28;20045;-78
2022/04/28 09:47:46;;;;;;;3.38;3.17;;;;;;;;;;5026460;28;20063;-77
2022/04/28 09:50:15;;;;;;;3.38;3.08;;;;;;;;;;5026601;28;20111;-77
2022/04/28 09:53:15;;;;;;;3.20;3.00;;;;;;;;;;5026329;28;20037;-77
2022/04/28 09:56:16;;;;;;;4.70;2.83;;;;;;;;;;5026899;28;20528;-77
2022/04/28 09:58:56;;;;;;;5.28;2.65;;;;;;;;;;5010073;28;20053;-77
2022/04/28 10:01:24;;;;;;;4.80;4.40;;;;;;;;;;5028495;28;20060;-78
2022/04/28 10:03:52;;;;;;;5.00;4.60;;;;;;;;;;5011788;28;20155;-77
2022/04/28 10:06:25;;;;;;;6.43;4.28;;;;;;;;;;5026572;28;20132;-77
2022/04/28 10:08:56;;;;;;;4.50;4.20;;;;;;;;;;5027724;28;20572;-77
2022/04/28 10:11:24;;;;;;;6.00;4.78;;;;;;;;;;5026008;28;20085;-78
2022/04/28 10:13:55;;;;;;;4.15;3.85;;;;;;;;;;5011011;28;20045;-78
2022/04/28 10:16:24;;;;;;;4.60;4.13;;;;;;;;;;5026352;28;20037;-78
2022/04/28 10:19:10;;;;;;;5.40;4.90;;;;;;;;;;5010746;28;20251;-78
2022/04/28 10:21:51;;;;;;;4.40;4.10;;;;;;;;;;5017915;22;20103;-80
2022/04/28 10:33:21;;;;;;;4.75;4.43;;;;;;;;;;5074952;28;20056;-82
2022/04/28 10:35:51;;;;;;;4.82;4.43;;;;;;;;;;5076949;28;20166;-82
2022/04/28 10:38:32;;;;;;;4.30;3.63;;;;;;;;;;5078549;28;20076;-81
2022/04/28 10:40:59;;;;;;;4.32;3.92;;;;;;;;;;5068990;28;20099;-81
2022/04/28 10:43:32;;;;;;;4.10;3.80;;;;;;;;;;5039006;28;20044;-83
2022/04/28 10:46:01;;;;;;;4.85;4.55;;;;;;;;;;5065526;28;20104;-83
2022/04/28 10:48:31;;;;;;;6.15;4.15;;;;;;;;;;5077990;28;20045;-83
2022/04/28 10:51:05;;;;;;;6.27;4.30;;;;;;;;;;5068274;28;20041;-82
2022/04/28 10:53:33;;;;;;;3.70;3.40;;;;;;;;;;5058439;28;20067;-81
2022/04/28 10:56:12;;;;;;;5.22;3.70;;;;;;;;;;5062655;28;20089;-82
2022/04/28 10:58:39;;;;;;;4.85;4.35;;;;;;;;;;5076058;28;20143;-82
2022/04/28 11:01:07;;;;;;;4.35;3.95;;;;;;;;;;5056099;28;20044;-84
2022/04/28 11:03:46;;;;;;;4.07;3.78;;;;;;;;;;5077608;28;20610;-82
2022/04/28 11:06:16;;;;;;;4.93;3.70;;;;;;;;;;5045771;28;20088;-83
2022/04/28 11:08:45;;;;;;;3.53;3.33;;;;;;;;;;5041255;28;20052;-80
2022/04/28 11:11:14;;;;;;;4.18;3.78;;;;;;;;;;5048470;28;20045;-83
2022/04/28 11:13:43;;;;;;;4.50;4.10;;;;;;;;;;5055906;28;20059;-82
2022/04/28 11:16:13;;;;;;;3.97;3.65;;;;;;;;;;5075034;28;20132;-82
2022/04/28 11:18:43;;;;;;;6.97;3.42;;;;;;;;;;5073623;28;20048;-83
2022/04/28 11:21:11;;;;;;;4.00;3.70;;;;;;;;;;5072982;28;20029;-85
2022/04/28 11:23:43;;;;;;;6.75;3.90;;;;;;;;;;5044685;28;20371;-84
2022/04/28 11:26:25;;;;;;;4.40;4.00;;;;;;;;;;5042517;28;20045;-83
2022/04/28 11:28:56;;;;;;;8.07;3.92;;;;;;;;;;5039864;28;20051;-83
2022/04/28 11:31:23;;;;;;;3.83;3.47;;;;;;;;;;5051185;28;20045;-82
2022/04/28 11:33:55;;;;;;;;;;;;;;;;;;5033087;28;20042;-83
2022/04/28 11:36:27;;;;;;;3.78;3.45;;;;;;;;;;5054298;28;20679;-83
2022/04/28 11:39:04;;;;;;;3.35;3.08;;;;;;;;;;5035815;28;20068;-82
2022/04/28 11:41:38;;;;;;;4.07;3.25;;;;;;;;;;5027575;28;20049;-84
2022/04/28 11:44:10;;;;;;;3.88;2.72;;;;;;;;;;5053924;28;20041;-81
2022/04/28 11:46:47;;;;;;;3.38;3.08;;;;;;;;;;5034123;28;20041;-82
2022/04/28 11:49:15;;;;;;;4.45;3.13;;;;;;;;;;5055722;28;20112;-83
2022/04/28 11:51:42;;;;;;;2.72;2.50;;;;;;;;;;5049607;28;20108;-85
2022/04/28 11:54:23;;;;;;;2.80;2.70;;;;;;;;;;5038738;28;20037;-84
2022/04/28 11:56:51;;;;;;;2.47;2.37;;;;;;;;;;5056678;28;20416;-84
2022/04/28 11:59:19;;;;;;;3.13;2.83;;;;;;;;;;5036544;28;20863;-83
2022/04/28 12:01:47;;;;;;;2.70;2.50;;;;;;;;;;5031908;28;20081;-84
2022/04/28 12:04:16;;;;;;;2.35;2.20;;;;;;;;;;5017496;28;20135;-84
2022/04/28 12:06:48;;;;;;;2.25;2.15;;;;;;;;;;5033781;28;20051;-83
2022/04/28 12:14:48;;;;;;;2.75;2.55;;;;;;;;;;5053880;28;20472;-84
2022/04/28 12:20:04;;;;;;;2.75;2.35;;;;;;;;;;5052084;28;20041;-82
2022/04/28 12:22:37;;;;;;;3.25;2.50;;;;;;;;;;5029538;28;20066;-83
2022/04/28 12:25:06;;;;;;;2.88;2.40;;;;;;;;;;5067977;28;20048;-83
2022/04/28 12:28:00;;;;;;;5.90;2.47;;;;;;;;;;5075758;28;20107;-83
2022/04/28 12:30:28;;;;;;;2.30;2.08;;;;;;;;;;5072607;28;20135;-83
2022/04/28 12:32:55;;;;;;;10.68;3.47;;;;;;;;;;5073565;28;20048;-83
2022/04/28 12:35:23;;;;;;;2.50;2.00;;;;;;;;;;5074311;28;20111;-83
2022/04/28 12:37:57;;;;;;;3.45;2.10;;;;;;;;;;5073350;28;20044;-84
2022/04/28 12:40:26;;;;;;;3.20;2.13;;;;;;;;;;5073768;28;20047;-84
2022/04/28 12:42:57;;;;;;;1.80;1.70;;;;;;;;;;5077021;28;20116;-83
2022/04/28 12:45:41;;;;;;;3.95;2.50;;;;;;;;;;5076291;28;20067;-83
2022/04/28 12:48:22;;;;;;;4.93;2.10;;;;;;;;;;5076095;28;20056;-84
2022/04/28 12:50:50;;;;;;;2.92;1.92;;;;;;;;;;5072677;28;20433;-83
2022/04/28 12:53:32;;;;;;;5.15;1.80;;;;;;;;;;5075145;28;20128;-83
2022/04/28 12:56:10;;;;;;;1.92;1.83;;;;;;;;;;5073055;28;20040;-83
2022/04/28 12:58:38;;;;;;;2.08;1.67;;;;;;;;;;5075630;28;20056;-80
2022/04/28 13:01:08;;;;;;;3.47;2.00;;;;;;;;;;5075419;28;20535;-84
2022/04/28 13:03:40;;;;;;;4.70;3.08;;;;;;;;;;5057321;28;20082;-84
2022/04/28 13:06:17;;;;;;;;;;;;;;;;;;5075057;28;20047;-83
2022/04/28 13:09:07;;;;;;;5.00;2.90;;;;;;;;;;5072716;28;19920;-84
2022/04/28 13:11:41;;;;;;;3.50;3.25;;;;;;;;;;5086523;28;20036;-82
2022/04/28 13:14:11;;;;;;;4.80;3.40;;;;;;;;;;5075883;28;20048;-83
2022/04/28 13:16:39;;;;;;;3.50;3.20;;;;;;;;;;5076183;28;20436;-83
2022/04/28 13:19:08;;;;;;;3.42;3.15;;;;;;;;;;5073054;28;20104;-82
2022/04/28 13:21:36;;;;;;;3.15;2.85;;;;;;;;;;5072335;28;20056;-84
2022/04/28 13:24:04;;;;;;;3.13;2.90;;;;;;;;;;5072938;28;20048;-84
2022/04/28 13:26:32;;;;;;;5.47;2.80;;;;;;;;;;5080633;28;20053;-82
2022/04/28 13:29:00;;;;;;;4.50;3.45;;;;;;;;;;5081207;28;20088;-85
2022/04/28 13:31:30;;;;;;;3.83;3.15;;;;;;;;;;5069481;28;20165;-84
2022/04/28 13:33:58;;;;;;;3.83;3.53;;;;;;;;;;5078148;28;20104;-83
2022/04/28 13:36:26;;;;;;;3.35;3.05;;;;;;;;;;5067877;28;20509;-83
2022/04/28 13:38:54;;;;;;;3.50;3.10;;;;;;;;;;5092403;28;20564;-83
2022/04/28 13:41:26;;;;;;;7.85;3.63;;;;;;;;;;5071637;28;20039;-83
2022/04/28 13:43:54;;;;;;;3.50;3.20;;;;;;;;;;5088366;28;20056;-83
2022/04/28 13:46:21;;;;;;;2.85;2.65;;;;;;;;;;5085039;28;20040;-86
2022/04/28 13:48:49;;;;;;;3.72;3.28;;;;;;;;;;5072160;28;20216;-83
2022/04/28 13:51:16;;;;;;;5.70;3.00;;;;;;;;;;5071764;28;20167;-83
2022/04/28 13:53:45;;;;;;;4.25;2.67;;;;;;;;;;5065760;28;20040;-83
2022/04/28 13:56:15;;;;;;;2.67;2.47;;;;;;;;;;5081179;28;20060;-84
2022/04/28 13:58:44;;;;;;;3.15;2.25;;;;;;;;;;5069025;28;20049;-83
2022/04/28 14:01:12;;;;;;;3.88;2.78;;;;;;;;;;5069882;28;20387;-83
2022/04/28 14:03:39;;;;;;;3.28;2.90;;;;;;;;;;5074399;28;20048;-84
2022/04/28 14:06:07;;;;;;;4.68;2.40;;;;;;;;;;5077840;28;20440;-84
2022/04/28 14:08:36;;;;;;;2.90;2.17;;;;;;;;;;5055349;28;20055;-83
2022/04/28 14:11:06;;;;;;;3.78;1.90;;;;;;;;;;5061035;28;20163;-84
2022/04/28 14:13:34;;;;;;;2.10;2.00;;;;;;;;;;5065071;28;20040;-83
2022/04/28 14:16:04;;;;;;;5.10;2.50;;;;;;;;;;5060344;28;20305;-81
2022/04/28 14:18:35;;;;;;;3.20;2.35;;;;;;;;;;5085302;28;20036;-83
2022/04/28 14:21:05;;;;;;;3.83;2.08;;;;;;;;;;5043636;28;20615;-84
2022/04/28 14:23:33;;;;;;;2.33;1.90;;;;;;;;;;5082770;28;20044;-85
2022/04/28 14:26:01;;;;;;;3.30;2.00;;;;;;;;;;5100213;28;20257;-83
2022/04/28 14:28:28;;;;;;;2.00;1.70;;;;;;;;;;5089632;28;20064;-85
2022/04/28 14:30:56;;;;;;;2.13;1.90;;;;;;;;;;5105199;28;20052;-83
2022/04/28 14:33:43;;;;;;;2.03;1.80;;;;;;;;;;5091526;28;20048;-85
2022/04/28 14:36:10;;;;;;;4.15;1.80;;;;;;;;;;5096226;28;20041;-83
2022/04/28 14:38:38;;;;;;;1.83;1.73;;;;;;;;;;5104130;28;20037;-83
2022/04/28 14:41:05;;;;;;;11.43;2.25;;;;;;;;;;5077848;28;20541;-82
2022/04/28 14:43:36;;;;;;;6.83;1.70;;;;;;;;;;5077380;28;20040;-85
2022/04/28 14:46:04;;;;;;;5.60;1.58;;;;;;;;;;5088282;28;20280;-86
2022/04/28 14:52:19;;;;;;;3.22;2.17;;;;;;;;;;5094600;28;20053;-85
2022/04/28 14:54:06;;;;;;;4.68;1.67;;;;;;;;;;5068366;28;20106;-83
2022/04/28 14:56:34;;;;;;;3.15;1.52;;;;;;;;;;5052836;28;20029;-86
2022/04/28 14:59:09;;;;;;;2.17;1.60;;;;;;;;;;5086712;28;20025;-84
2022/04/28 15:01:42;;;;;;;2.38;1.48;;;;;;;;;;5088102;28;20039;-84
2022/04/28 15:04:13;;;;;;;3.42;1.65;;;;;;;;;;5086768;28;20029;-80
2022/04/28 15:06:45;;;;;;;3.28;1.67;;;;;;;;;;5088384;28;20037;-83
2022/04/28 15:09:14;;;;;;;2.05;1.60;;;;;;;;;;5084963;28;20337;-84
2022/04/28 15:11:50;;;;;;;1.70;1.60;;;;;;;;;;5080203;28;20080;-85
2022/04/28 15:14:20;;;;;;;5.95;1.95;;;;;;;;;;5080805;28;20478;-84
2022/04/28 15:16:51;;;;;;;3.95;1.50;;;;;;;;;;5082333;28;20062;-84
2022/04/28 15:19:29;;;;;;;2.05;1.83;;;;;;;;;;5086046;28;20025;-85
2022/04/28 15:21:59;;;;;;;1.80;1.70;;;;;;;;;;5085886;28;20068;-85
2022/04/28 15:24:27;;;;;;;1.75;1.65;;;;;;;;;;5051447;28;20045;-84
2022/04/28 15:26:54;;;;;;;1.80;1.55;;;;;;;;;;5060907;28;20055;-84
2022/04/28 15:29:22;;;;;;;4.10;1.48;;;;;;;;;;5074696;28;20028;-83
2022/04/28 15:31:49;;;;;;;3.05;1.67;;;;;;;;;;5083242;28;20052;-84
2022/04/28 15:34:17;;;;;;;2.78;1.70;;;;;;;;;;5030520;28;20061;-85
2022/04/28 15:36:48;;;;;;;1.63;1.60;;;;;;;;;;5079158;28;20042;-83
2022/04/28 15:39:19;;;;;;;3.35;1.48;;;;;;;;;;5086029;28;20441;-83
2022/04/28 15:41:49;;;;;;;1.83;1.40;;;;;;;;;;5072545;28;20608;-84
2022/04/28 15:44:19;;;;;;;1.48;1.38;;;;;;;;;;5076242;28;20043;-83
2022/04/28 15:46:47;;;;;;;1.65;1.50;;;;;;;;;;5058355;28;20036;-84
2022/04/28 15:49:24;;;;;;;2.75;1.52;;;;;;;;;;5056632;28;20036;-84
2022/04/28 15:51:51;;;;;;;2.78;1.40;;;;;;;;;;5052955;28;20059;-83
2022/04/28 15:54:20;;;;;;;1.70;1.45;;;;;;;;;;5060153;28;20066;-83
2022/04/28 15:56:48;;;;;;;5.05;1.70;;;;;;;;;;5040476;28;20049;-85
2022/04/28 15:59:15;;;;;;;3.05;1.85;;;;;;;;;;5039083;28;20040;-85
2022/04/28 16:01:51;;;;;;;3.08;1.95;;;;;;;;;;5080696;28;20063;-84
2022/04/28 16:04:22;;;;;;;;;;;;;;;;;;5076356;28;20045;-84
2022/04/28 16:06:49;;;;;;;2.00;1.90;;;;;;;;;;5078855;28;19920;-83
2022/04/28 16:09:24;;;;;;;1.98;1.88;;;;;;;;;;5040355;28;20051;-84
2022/04/28 16:11:51;;;;;;;2.92;2.65;;;;;;;;;;5054674;28;20060;-83
2022/04/28 16:14:19;;;;;;;5.35;1.98;;;;;;;;;;5069831;28;20040;-81
2022/04/28 16:16:47;;;;;;;2.53;1.80;;;;;;;;;;5044589;28;20506;-83
2022/04/28 16:19:14;;;;;;;1.90;1.73;;;;;;;;;;5030998;28;20472;-83
2022/04/28 16:24:43;;;;;;;1.75;1.50;;;;;;;;;;4969913;28;20090;-84